Private Wetterstation Sandau
Wetterdaten: Donnerstag, 26.07.2012
Datum Zeit Temp. A. Feuchte A. Luftdruck Regen Wind Richtung Richtung Taupunkt Windchill
26.07.2012 00:01 23,3 C 65 % 1014,3 hPa 0,0 l/m 1,4 km/h (1 Bft) W-NW 292 16,3 C 23,3 C
26.07.2012 00:06 23,1 C 66 % 1014,3 hPa 0,0 l/m 2,5 km/h (1 Bft) NW 315 16,4 C 23,1 C
26.07.2012 00:11 22,9 C 67 % 1014,5 hPa 0,0 l/m 2,2 km/h (1 Bft) NW 315 16,4 C 22,9 C
26.07.2012 00:16 22,8 C 67 % 1014,3 hPa 0,0 l/m 2,5 km/h (1 Bft) N 360 16,3 C 22,8 C
26.07.2012 00:21 22,6 C 67 % 1014,3 hPa 0,0 l/m 0,0 km/h (0 Bft) N 360 16,2 C 22,6 C
26.07.2012 00:26 22,4 C 67 % 1014,4 hPa 0,0 l/m 2,5 km/h (1 Bft) N-NW 337 16,0 C 22,4 C
26.07.2012 00:31 22,4 C 67 % 1014,4 hPa 0,0 l/m 1,4 km/h (1 Bft) NW 315 16,0 C 22,4 C
26.07.2012 00:36 22,3 C 67 % 1014,5 hPa 0,0 l/m 0,0 km/h (0 Bft) NW 315 15,9 C 22,3 C
26.07.2012 00:41 22,2 C 67 % 1014,6 hPa 0,0 l/m 0,0 km/h (0 Bft) N 360 15,8 C 22,2 C
26.07.2012 00:46 22,1 C 68 % 1014,6 hPa 0,0 l/m 0,0 km/h (0 Bft) N 360 15,9 C 22,1 C
26.07.2012 00:51 22,1 C 68 % 1014,6 hPa 0,0 l/m 0,0 km/h (0 Bft) N 360 15,9 C 22,1 C
26.07.2012 00:56 21,9 C 68 % 1014,5 hPa 0,0 l/m 0,0 km/h (0 Bft) N 360 15,7 C 21,9 C
26.07.2012 01:01 21,9 C 67 % 1014,6 hPa 0,0 l/m 0,0 km/h (0 Bft) N 360 15,5 C 21,9 C
26.07.2012 01:06 21,9 C 67 % 1014,6 hPa 0,0 l/m 0,0 km/h (0 Bft) N 360 15,5 C 21,9 C
26.07.2012 01:11 21,8 C 67 % 1014,6 hPa 0,0 l/m 0,0 km/h (0 Bft) N 360 15,4 C 21,8 C
26.07.2012 01:16 21,8 C 68 % 1014,7 hPa 0,0 l/m 1,1 km/h (1 Bft) N 360 15,6 C 21,8 C
26.07.2012 01:21 21,7 C 68 % 1014,6 hPa 0,0 l/m 0,0 km/h (0 Bft) N 360 15,5 C 21,7 C
26.07.2012 01:26 21,6 C 68 % 1014,6 hPa 0,0 l/m 0,0 km/h (0 Bft) N 360 15,4 C 21,6 C
26.07.2012 01:31 21,6 C 68 % 1014,6 hPa 0,0 l/m 1,4 km/h (1 Bft) N 360 15,4 C 21,6 C
26.07.2012 01:36 21,5 C 68 % 1014,6 hPa 0,0 l/m 0,0 km/h (0 Bft) N 360 15,3 C 21,5 C
26.07.2012 01:41 21,4 C 69 % 1014,6 hPa 0,0 l/m 0,0 km/h (0 Bft) N 360 15,5 C 21,4 C
26.07.2012 01:46 21,3 C 69 % 1014,8 hPa 0,0 l/m 0,0 km/h (0 Bft) N 360 15,4 C 21,3 C
26.07.2012 01:51 21,3 C 70 % 1014,8 hPa 0,0 l/m 0,0 km/h (0 Bft) N 360 15,6 C 21,3 C
26.07.2012 01:56 21,3 C 70 % 1014,7 hPa 0,0 l/m 0,0 km/h (0 Bft) N 360 15,6 C 21,3 C
26.07.2012 02:01 21,2 C 70 % 1014,6 hPa 0,0 l/m 1,8 km/h (1 Bft) N 360 15,5 C 21,2 C
26.07.2012 02:06 21,1 C 71 % 1014,6 hPa 0,0 l/m 0,0 km/h (0 Bft) N 360 15,6 C 21,1 C
26.07.2012 02:41 20,6 C 73 % 1014,8 hPa 0,0 l/m 0,0 km/h (0 Bft) N 360 15,6 C 20,6 C
26.07.2012 02:46 20,5 C 73 % 1014,8 hPa 0,0 l/m 1,4 km/h (1 Bft) NW 315 15,5 C 20,5 C
26.07.2012 02:51 20,4 C 73 % 1014,7 hPa 0,0 l/m 0,0 km/h (0 Bft) NW 315 15,4 C 20,4 C
26.07.2012 02:56 20,4 C 73 % 1014,7 hPa 0,0 l/m 0,0 km/h (0 Bft) NW 315 15,4 C 20,4 C
26.07.2012 03:01 20,3 C 73 % 1014,8 hPa 0,0 l/m 0,0 km/h (0 Bft) NW 315 15,3 C 20,3 C
26.07.2012 03:06 20,2 C 74 % 1014,6 hPa 0,0 l/m 0,0 km/h (0 Bft) NW 315 15,4 C 20,2 C
26.07.2012 03:11 20,1 C 74 % 1014,7 hPa 0,0 l/m 1,4 km/h (1 Bft) NW 315 15,3 C 20,1 C
26.07.2012 03:16 20,1 C 74 % 1014,8 hPa 0,0 l/m 2,2 km/h (1 Bft) NW 315 15,3 C 20,1 C
26.07.2012 03:21 20,1 C 74 % 1014,7 hPa 0,0 l/m 3,2 km/h (1 Bft) NW 315 15,3 C 20,1 C
26.07.2012 03:26 20,0 C 75 % 1014,8 hPa 0,0 l/m 2,2 km/h (1 Bft) NW 315 15,4 C 20,0 C
26.07.2012 03:31 19,9 C 75 % 1014,8 hPa 0,0 l/m 0,0 km/h (0 Bft) N 360 15,3 C 19,9 C
26.07.2012 03:36 19,9 C 75 % 1014,7 hPa 0,0 l/m 0,0 km/h (0 Bft) NW 315 15,3 C 19,9 C
26.07.2012 03:41 19,9 C 76 % 1014,7 hPa 0,0 l/m 0,0 km/h (0 Bft) N 360 15,5 C 19,9 C
26.07.2012 03:46 19,9 C 76 % 1014,6 hPa 0,0 l/m 0,0 km/h (0 Bft) N-NO 22 15,5 C 19,9 C
26.07.2012 03:51 19,8 C 76 % 1014,9 hPa 0,0 l/m 2,5 km/h (1 Bft) NW 315 15,4 C 19,8 C
26.07.2012 03:56 19,8 C 76 % 1014,9 hPa 0,0 l/m 1,8 km/h (1 Bft) N 360 15,4 C 19,8 C
26.07.2012 04:01 19,7 C 76 % 1014,9 hPa 0,0 l/m 1,4 km/h (1 Bft) N-NW 337 15,3 C 19,7 C
26.07.2012 04:06 19,6 C 77 % 1014,9 hPa 0,0 l/m 4,7 km/h (1 Bft) NW 315 15,5 C 19,6 C
26.07.2012 04:11 19,5 C 77 % 1014,9 hPa 0,0 l/m 4,3 km/h (1 Bft) NW 315 15,4 C 19,5 C
26.07.2012 04:16 19,4 C 77 % 1014,9 hPa 0,0 l/m 1,4 km/h (1 Bft) N-NW 337 15,3 C 19,4 C
26.07.2012 04:21 19,4 C 77 % 1014,9 hPa 0,0 l/m 0,0 km/h (0 Bft) N-NW 337 15,3 C 19,4 C
26.07.2012 04:26 19,4 C 77 % 1014,7 hPa 0,0 l/m 0,0 km/h (0 Bft) N-NW 337 15,3 C 19,4 C
26.07.2012 04:31 19,4 C 78 % 1014,9 hPa 0,0 l/m 0,0 km/h (0 Bft) W-NW 292 15,5 C 19,4 C
26.07.2012 04:36 19,3 C 78 % 1014,9 hPa 0,0 l/m 3,2 km/h (1 Bft) NW 315 15,4 C 19,3 C
26.07.2012 04:41 19,3 C 78 % 1014,9 hPa 0,0 l/m 3,2 km/h (1 Bft) NW 315 15,4 C 19,3 C
26.07.2012 04:46 19,2 C 78 % 1015,0 hPa 0,0 l/m 0,0 km/h (0 Bft) W-NW 292 15,3 C 19,2 C
26.07.2012 04:51 19,2 C 78 % 1015,0 hPa 0,0 l/m 1,4 km/h (1 Bft) NW 315 15,3 C 19,2 C
26.07.2012 04:56 19,1 C 78 % 1015,0 hPa 0,0 l/m 0,0 km/h (0 Bft) W-NW 292 15,2 C 19,1 C
26.07.2012 05:01 19,1 C 79 % 1015,0 hPa 0,0 l/m 1,4 km/h (1 Bft) NW 315 15,4 C 19,1 C
26.07.2012 05:06 19,0 C 79 % 1015,1 hPa 0,0 l/m 0,0 km/h (0 Bft) W-NW 292 15,3 C 19,0 C
26.07.2012 05:11 18,9 C 79 % 1015,1 hPa 0,0 l/m 0,0 km/h (0 Bft) NW 315 15,2 C 18,9 C
26.07.2012 05:16 18,9 C 79 % 1015,1 hPa 0,0 l/m 3,2 km/h (1 Bft) W-NW 292 15,2 C 18,9 C
26.07.2012 05:21 18,9 C 80 % 1015,1 hPa 0,0 l/m 2,9 km/h (1 Bft) W-NW 292 15,4 C 18,9 C
26.07.2012 05:26 18,9 C 80 % 1015,2 hPa 0,0 l/m 2,2 km/h (1 Bft) NW 315 15,4 C 18,9 C
26.07.2012 05:31 18,8 C 80 % 1015,3 hPa 0,0 l/m 0,0 km/h (0 Bft) W 270 15,3 C 18,8 C
26.07.2012 05:36 18,8 C 80 % 1015,3 hPa 0,0 l/m 1,4 km/h (1 Bft) W 270 15,3 C 18,8 C
26.07.2012 05:41 18,8 C 80 % 1015,4 hPa 0,0 l/m 0,0 km/h (0 Bft) W-NW 292 15,3 C 18,8 C
26.07.2012 05:46 18,8 C 80 % 1015,4 hPa 0,0 l/m 3,6 km/h (1 Bft) W-NW 292 15,3 C 18,8 C
26.07.2012 05:51 18,8 C 80 % 1015,4 hPa 0,0 l/m 3,6 km/h (1 Bft) W 270 15,3 C 18,8 C
26.07.2012 05:56 18,8 C 80 % 1015,5 hPa 0,0 l/m 0,0 km/h (0 Bft) NW 315 15,3 C 18,8 C
26.07.2012 06:01 18,8 C 80 % 1015,4 hPa 0,0 l/m 0,0 km/h (0 Bft) NW 315 15,3 C 18,8 C
26.07.2012 06:06 18,8 C 80 % 1015,4 hPa 0,0 l/m 0,0 km/h (0 Bft) NW 315 15,3 C 18,8 C
26.07.2012 06:11 19,0 C 80 % 1015,5 hPa 0,0 l/m 0,0 km/h (0 Bft) NW 315 15,5 C 19,0 C
26.07.2012 06:16 19,2 C 80 % 1015,6 hPa 0,0 l/m 0,0 km/h (0 Bft) NW 315 15,7 C 19,2 C
26.07.2012 06:21 19,3 C 80 % 1015,6 hPa 0,0 l/m 2,2 km/h (1 Bft) NW 315 15,8 C 19,3 C
26.07.2012 06:26 19,5 C 80 % 1015,7 hPa 0,0 l/m 1,8 km/h (1 Bft) W-NW 292 16,0 C 19,5 C
26.07.2012 06:31 19,6 C 79 % 1015,9 hPa 0,0 l/m 0,0 km/h (0 Bft) N-NW 337 15,9 C 19,6 C
26.07.2012 06:36 19,7 C 78 % 1015,8 hPa 0,0 l/m 0,0 km/h (0 Bft) NW 315 15,8 C 19,7 C
26.07.2012 06:41 19,6 C 78 % 1015,8 hPa 0,0 l/m 1,8 km/h (1 Bft) W-NW 292 15,7 C 19,6 C
26.07.2012 06:46 19,6 C 78 % 1015,8 hPa 0,0 l/m 0,0 km/h (0 Bft) NW 315 15,7 C 19,6 C
26.07.2012 06:51 19,8 C 79 % 1015,9 hPa 0,0 l/m 0,0 km/h (0 Bft) NW 315 16,0 C 19,8 C
26.07.2012 06:56 20,1 C 79 % 1015,9 hPa 0,0 l/m 0,0 km/h (0 Bft) NW 315 16,3 C 20,1 C
26.07.2012 07:01 20,7 C 78 % 1015,9 hPa 0,0 l/m 2,2 km/h (1 Bft) NW 315 16,7 C 20,7 C
26.07.2012 07:06 21,2 C 77 % 1016,0 hPa 0,0 l/m 0,0 km/h (0 Bft) NW 315 17,0 C 21,2 C
26.07.2012 07:11 21,7 C 75 % 1016,0 hPa 0,0 l/m 0,0 km/h (0 Bft) W-NW 292 17,1 C 21,7 C
26.07.2012 07:16 22,1 C 74 % 1016,1 hPa 0,0 l/m 2,9 km/h (1 Bft) NW 315 17,2 C 22,1 C
26.07.2012 07:21 22,4 C 73 % 1016,1 hPa 0,0 l/m 4,3 km/h (1 Bft) N 360 17,3 C 22,4 C
26.07.2012 07:26 22,4 C 72 % 1016,1 hPa 0,0 l/m 5,0 km/h (1 Bft) N-NO 22 17,1 C 22,4 C
26.07.2012 07:31 22,2 C 72 % 1016,1 hPa 0,0 l/m 3,2 km/h (1 Bft) N 360 16,9 C 22,2 C
26.07.2012 07:36 22,2 C 72 % 1016,1 hPa 0,0 l/m 2,5 km/h (1 Bft) N 360 16,9 C 22,2 C
26.07.2012 07:41 22,4 C 72 % 1016,0 hPa 0,0 l/m 4,0 km/h (1 Bft) N 360 17,1 C 22,4 C
26.07.2012 07:46 22,4 C 71 % 1016,1 hPa 0,0 l/m 0,0 km/h (0 Bft) N-NO 22 16,9 C 22,4 C
26.07.2012 07:51 22,5 C 71 % 1016,0 hPa 0,0 l/m 0,0 km/h (0 Bft) N 360 17,0 C 22,5 C
26.07.2012 07:56 22,8 C 70 % 1016,1 hPa 0,0 l/m 2,9 km/h (1 Bft) W-SW 247 17,0 C 22,8 C
26.07.2012 08:01 22,9 C 69 % 1016,1 hPa 0,0 l/m 6,5 km/h (2 Bft) NO 45 16,9 C 22,9 C
26.07.2012 08:06 22,9 C 69 % 1016,1 hPa 0,0 l/m 4,0 km/h (1 Bft) N-NW 337 16,9 C 22,9 C
26.07.2012 08:11 22,9 C 69 % 1016,1 hPa 0,0 l/m 16,6 km/h (3 Bft) N-NO 22 16,9 C 22,9 C
26.07.2012 08:16 22,9 C 68 % 1016,2 hPa 0,0 l/m 5,8 km/h (2 Bft) N-NO 22 16,7 C 22,9 C
26.07.2012 08:21 22,9 C 67 % 1016,1 hPa 0,0 l/m 9,0 km/h (2 Bft) N-NW 337 16,4 C 22,9 C
26.07.2012 08:26 22,9 C 67 % 1016,1 hPa 0,0 l/m 6,1 km/h (2 Bft) NO 45 16,4 C 22,9 C
26.07.2012 08:31 23,0 C 67 % 1016,3 hPa 0,0 l/m 9,0 km/h (2 Bft) N-NO 22 16,5 C 23,0 C
26.07.2012 08:36 23,2 C 67 % 1016,2 hPa 0,0 l/m 5,8 km/h (2 Bft) N 360 16,7 C 23,2 C
26.07.2012 08:41 23,4 C 66 % 1016,2 hPa 0,0 l/m 3,6 km/h (1 Bft) N-NO 22 16,7 C 23,4 C
26.07.2012 08:46 23,4 C 65 % 1016,4 hPa 0,0 l/m 5,4 km/h (1 Bft) N-NW 337 16,4 C 23,4 C
26.07.2012 08:51 23,8 C 65 % 1016,4 hPa 0,0 l/m 8,6 km/h (2 Bft) N-NO 22 16,8 C 23,8 C
26.07.2012 08:56 23,8 C 64 % 1016,4 hPa 0,0 l/m 2,9 km/h (1 Bft) O-NO 67 16,6 C 23,8 C
26.07.2012 09:01 23,9 C 64 % 1016,4 hPa 0,0 l/m 9,7 km/h (2 Bft) O-NO 67 16,7 C 23,9 C
26.07.2012 09:06 23,9 C 64 % 1016,3 hPa 0,0 l/m 2,2 km/h (1 Bft) N-NO 22 16,7 C 23,9 C
26.07.2012 09:11 24,3 C 63 % 1016,4 hPa 0,0 l/m 4,7 km/h (1 Bft) N-NO 22 16,8 C 24,3 C
26.07.2012 09:16 24,4 C 62 % 1016,3 hPa 0,0 l/m 4,0 km/h (1 Bft) N-NO 22 16,6 C 24,4 C
26.07.2012 09:21 24,4 C 62 % 1016,3 hPa 0,0 l/m 6,8 km/h (2 Bft) N-NO 22 16,6 C 24,4 C
26.07.2012 09:26 24,4 C 61 % 1016,4 hPa 0,0 l/m 9,4 km/h (2 Bft) N 360 16,4 C 24,4 C
26.07.2012 09:31 24,5 C 61 % 1016,3 hPa 0,0 l/m 3,6 km/h (1 Bft) N-NO 22 16,5 C 24,5 C
26.07.2012 09:36 24,7 C 61 % 1016,4 hPa 0,0 l/m 4,7 km/h (1 Bft) N 360 16,7 C 24,7 C
26.07.2012 09:41 24,8 C 60 % 1016,3 hPa 0,0 l/m 6,1 km/h (2 Bft) N-NO 22 16,5 C 24,8 C
26.07.2012 09:46 24,9 C 58 % 1016,4 hPa 0,0 l/m 5,0 km/h (1 Bft) N 360 16,1 C 24,9 C
26.07.2012 09:51 25,1 C 59 % 1016,4 hPa 0,0 l/m 7,2 km/h (2 Bft) NO 45 16,5 C 25,1 C
26.07.2012 09:56 25,3 C 59 % 1016,5 hPa 0,0 l/m 6,1 km/h (2 Bft) N 360 16,7 C 25,3 C
26.07.2012 10:01 25,4 C 58 % 1016,4 hPa 0,0 l/m 3,6 km/h (1 Bft) NO 45 16,5 C 25,4 C
26.07.2012 10:06 25,8 C 59 % 1016,4 hPa 0,0 l/m 6,5 km/h (2 Bft) NO 45 17,2 C 25,8 C
26.07.2012 10:11 25,9 C 57 % 1016,4 hPa 0,0 l/m 4,7 km/h (1 Bft) O-NO 67 16,7 C 25,9 C
26.07.2012 10:16 26,4 C 55 % 1016,5 hPa 0,0 l/m 4,3 km/h (1 Bft) N-NO 22 16,6 C 26,4 C
26.07.2012 10:21 26,4 C 55 % 1016,6 hPa 0,0 l/m 8,3 km/h (2 Bft) N 360 16,6 C 26,4 C
26.07.2012 10:26 26,5 C 54 % 1016,4 hPa 0,0 l/m 12,2 km/h (2 Bft) N 360 16,4 C 26,5 C
26.07.2012 10:31 26,6 C 54 % 1016,5 hPa 0,0 l/m 7,9 km/h (2 Bft) N-NO 22 16,5 C 26,6 C
26.07.2012 10:36 26,6 C 53 % 1016,4 hPa 0,0 l/m 3,6 km/h (1 Bft) N 360 16,2 C 26,6 C
26.07.2012 10:41 26,8 C 54 % 1016,5 hPa 0,0 l/m 3,2 km/h (1 Bft) N 360 16,7 C 26,8 C
26.07.2012 10:46 27,0 C 53 % 1016,5 hPa 0,0 l/m 6,5 km/h (2 Bft) N-NO 22 16,6 C 27,0 C
26.07.2012 10:51 27,1 C 52 % 1016,7 hPa 0,0 l/m 4,7 km/h (1 Bft) N 360 16,4 C 27,1 C
26.07.2012 10:56 27,2 C 52 % 1016,7 hPa 0,5 l/m 5,0 km/h (1 Bft) N-NO 22 16,5 C 27,2 C
26.07.2012 11:01 27,3 C 52 % 1016,6 hPa 0,0 l/m 6,1 km/h (2 Bft) N-NO 22 16,6 C 27,3 C
26.07.2012 11:06 27,5 C 52 % 1016,7 hPa 0,0 l/m 11,5 km/h (2 Bft) N 360 16,7 C 27,5 C
26.07.2012 11:11 27,6 C 51 % 1016,7 hPa 0,0 l/m 2,2 km/h (1 Bft) N-NO 22 16,5 C 27,6 C
26.07.2012 11:16 27,9 C 51 % 1016,8 hPa 0,0 l/m 7,9 km/h (2 Bft) N-NO 22 16,8 C 27,9 C
26.07.2012 11:21 27,9 C 51 % 1016,7 hPa 0,0 l/m 4,3 km/h (1 Bft) N-NO 22 16,8 C 27,9 C
26.07.2012 11:26 28,2 C 50 % 1016,8 hPa 0,0 l/m 1,8 km/h (1 Bft) N-NO 22 16,8 C 28,2 C
26.07.2012 11:31 28,5 C 49 % 1016,7 hPa 0,0 l/m 6,1 km/h (2 Bft) O-NO 67 16,7 C 28,5 C
26.07.2012 11:36 28,6 C 48 % 1016,8 hPa 0,0 l/m 8,6 km/h (2 Bft) N-NO 22 16,5 C 28,6 C
26.07.2012 11:41 28,6 C 47 % 1016,7 hPa 0,0 l/m 6,5 km/h (2 Bft) N-NO 22 16,2 C 28,6 C
26.07.2012 11:46 28,6 C 49 % 1016,8 hPa 0,0 l/m 7,9 km/h (2 Bft) NW 315 16,8 C 28,6 C
26.07.2012 11:51 29,1 C 47 % 1016,8 hPa 0,0 l/m 2,9 km/h (1 Bft) NO 45 16,6 C 29,1 C
26.07.2012 11:56 29,1 C 46 % 1016,8 hPa 0,0 l/m 7,9 km/h (2 Bft) O-NO 67 16,3 C 29,1 C
26.07.2012 12:01 29,1 C 46 % 1016,7 hPa 0,0 l/m 5,8 km/h (2 Bft) N-NO 22 16,3 C 29,1 C
26.07.2012 12:06 29,1 C 46 % 1016,8 hPa 0,0 l/m 8,3 km/h (2 Bft) N 360 16,3 C 29,1 C
26.07.2012 12:11 29,3 C 46 % 1016,7 hPa 0,0 l/m 14,8 km/h (3 Bft) N 360 16,5 C 29,3 C
26.07.2012 12:16 29,6 C 45 % 1016,8 hPa 0,0 l/m 11,9 km/h (2 Bft) N 360 16,4 C 29,6 C
26.07.2012 12:21 29,6 C 44 % 1016,8 hPa 0,0 l/m 3,2 km/h (1 Bft) O-NO 67 16,0 C 29,6 C
26.07.2012 12:26 29,6 C 45 % 1016,9 hPa 0,0 l/m 1,4 km/h (1 Bft) NW 315 16,4 C 29,6 C
26.07.2012 12:31 29,8 C 45 % 1017,0 hPa 0,0 l/m 4,0 km/h (1 Bft) N-NW 337 16,6 C 29,8 C
26.07.2012 12:36 29,8 C 44 % 1016,9 hPa 0,0 l/m 2,9 km/h (1 Bft) N-NO 22 16,2 C 29,8 C
26.07.2012 12:41 29,4 C 44 % 1016,8 hPa 0,0 l/m 4,7 km/h (1 Bft) O-NO 67 15,8 C 29,4 C
26.07.2012 12:46 29,3 C 44 % 1016,8 hPa 0,0 l/m 3,2 km/h (1 Bft) O-NO 67 15,8 C 29,3 C
26.07.2012 12:51 29,5 C 44 % 1016,8 hPa 0,0 l/m 0,0 km/h (0 Bft) N-NW 337 15,9 C 29,5 C
26.07.2012 12:56 29,9 C 45 % 1016,7 hPa 0,0 l/m 12,2 km/h (2 Bft) N-NO 22 16,7 C 29,9 C
26.07.2012 13:01 29,8 C 43 % 1016,8 hPa 0,0 l/m 14,4 km/h (3 Bft) N 360 15,8 C 29,8 C
26.07.2012 13:06 29,5 C 43 % 1016,8 hPa 0,0 l/m 8,3 km/h (2 Bft) O-NO 67 15,6 C 29,5 C
26.07.2012 13:11 29,9 C 43 % 1016,9 hPa 0,0 l/m 2,2 km/h (1 Bft) N 360 15,9 C 29,9 C
26.07.2012 13:16 30,3 C 42 % 1016,8 hPa 0,0 l/m 10,1 km/h (2 Bft) N-NO 22 15,9 C 30,3 C
26.07.2012 13:21 30,5 C 42 % 1016,8 hPa 0,0 l/m 4,3 km/h (1 Bft) N 360 16,1 C 30,5 C
26.07.2012 13:26 30,8 C 42 % 1016,9 hPa 0,0 l/m 11,2 km/h (2 Bft) N 360 16,4 C 30,8 C
26.07.2012 13:31 30,5 C 41 % 1016,8 hPa 0,0 l/m 5,4 km/h (1 Bft) N-NO 22 15,7 C 30,5 C
26.07.2012 13:36 30,3 C 42 % 1016,8 hPa 0,0 l/m 0,0 km/h (0 Bft) N 360 15,9 C 30,3 C
26.07.2012 13:41 30,5 C 42 % 1016,7 hPa 0,0 l/m 3,6 km/h (1 Bft) N 360 16,1 C 30,5 C
26.07.2012 13:46 30,9 C 41 % 1016,7 hPa 0,0 l/m 2,9 km/h (1 Bft) N-NW 337 16,1 C 30,9 C
26.07.2012 13:51 31,0 C 40 % 1016,6 hPa 0,0 l/m 6,5 km/h (2 Bft) N-NW 337 15,8 C 31,0 C
26.07.2012 13:56 31,4 C 40 % 1016,6 hPa 0,0 l/m 0,0 km/h (0 Bft) N 360 16,1 C 31,4 C
26.07.2012 14:01 31,5 C 38 % 1016,8 hPa 0,0 l/m 1,4 km/h (1 Bft) N-NW 337 15,4 C 31,5 C
26.07.2012 14:06 31,5 C 37 % 1016,8 hPa 0,0 l/m 3,6 km/h (1 Bft) N-NO 22 15,0 C 31,5 C
26.07.2012 14:11 31,3 C 40 % 1016,7 hPa 0,0 l/m 6,8 km/h (2 Bft) W-SW 247 16,1 C 31,3 C
26.07.2012 14:16 31,5 C 39 % 1016,7 hPa 0,0 l/m 1,4 km/h (1 Bft) W-NW 292 15,8 C 31,5 C
26.07.2012 14:21 31,9 C 39 % 1016,6 hPa 0,0 l/m 2,2 km/h (1 Bft) N-NO 22 16,2 C 31,9 C
26.07.2012 14:26 31,8 C 38 % 1016,5 hPa 0,0 l/m 3,2 km/h (1 Bft) N-NW 337 15,7 C 31,8 C
26.07.2012 14:31 31,6 C 40 % 1016,5 hPa 0,0 l/m 6,5 km/h (2 Bft) N-NW 337 16,3 C 31,6 C
26.07.2012 14:36 31,8 C 39 % 1016,7 hPa 0,0 l/m 0,0 km/h (0 Bft) W-NW 292 16,1 C 31,8 C
26.07.2012 14:41 31,9 C 37 % 1016,5 hPa 0,0 l/m 2,5 km/h (1 Bft) N-NO 22 15,4 C 31,9 C
26.07.2012 14:46 31,9 C 37 % 1016,5 hPa 0,0 l/m 3,2 km/h (1 Bft) N 360 15,4 C 31,9 C
26.07.2012 14:51 31,8 C 37 % 1016,4 hPa 0,0 l/m 6,5 km/h (2 Bft) N 360 15,3 C 31,8 C
26.07.2012 14:56 31,6 C 37 % 1016,4 hPa 0,0 l/m 4,7 km/h (1 Bft) N-NO 22 15,1 C 31,6 C
26.07.2012 15:01 31,6 C 38 % 1016,4 hPa 0,0 l/m 2,9 km/h (1 Bft) W 270 15,5 C 31,6 C
26.07.2012 15:06 32,1 C 38 % 1016,6 hPa 0,0 l/m 4,7 km/h (1 Bft) W-SW 247 16,0 C 32,1 C
26.07.2012 15:11 32,2 C 37 % 1016,4 hPa 0,0 l/m 2,9 km/h (1 Bft) NW 315 15,6 C 32,2 C
26.07.2012 15:16 32,2 C 37 % 1016,5 hPa 0,0 l/m 0,0 km/h (0 Bft) N 360 15,6 C 32,2 C
26.07.2012 15:21 32,2 C 36 % 1016,4 hPa 0,0 l/m 3,2 km/h (1 Bft) N-NW 337 15,2 C 32,2 C
26.07.2012 15:26 32,4 C 37 % 1016,4 hPa 0,0 l/m 7,2 km/h (2 Bft) N-NW 337 15,8 C 32,4 C
26.07.2012 15:31 32,5 C 37 % 1016,4 hPa 0,0 l/m 4,0 km/h (1 Bft) W-NW 292 15,9 C 32,5 C
26.07.2012 15:36 32,6 C 36 % 1016,3 hPa 0,0 l/m 6,1 km/h (2 Bft) N-NO 22 15,6 C 32,6 C
26.07.2012 15:41 32,4 C 37 % 1016,3 hPa 0,0 l/m 2,9 km/h (1 Bft) NO 45 15,8 C 32,4 C
26.07.2012 15:46 32,0 C 37 % 1016,3 hPa 0,0 l/m 8,6 km/h (2 Bft) N 360 15,5 C 32,0 C
26.07.2012 15:51 31,8 C 37 % 1016,4 hPa 0,0 l/m 2,5 km/h (1 Bft) NW 315 15,3 C 31,8 C
26.07.2012 15:56 31,8 C 37 % 1016,4 hPa 0,0 l/m 3,2 km/h (1 Bft) N-NW 337 15,3 C 31,8 C
26.07.2012 16:01 31,8 C 37 % 1016,3 hPa 0,0 l/m 4,0 km/h (1 Bft) N 360 15,3 C 31,8 C
26.07.2012 16:06 31,5 C 37 % 1016,3 hPa 0,0 l/m 11,2 km/h (2 Bft) N 360 15,0 C 31,5 C
26.07.2012 16:11 31,5 C 36 % 1016,2 hPa 0,0 l/m 4,0 km/h (1 Bft) NO 45 14,6 C 31,5 C
26.07.2012 16:16 31,3 C 37 % 1016,1 hPa 0,0 l/m 4,0 km/h (1 Bft) NW 315 14,8 C 31,3 C
26.07.2012 16:21 31,4 C 36 % 1016,3 hPa 0,0 l/m 8,6 km/h (2 Bft) N-NO 22 14,5 C 31,4 C
26.07.2012 16:26 31,0 C 37 % 1016,1 hPa 0,0 l/m 7,9 km/h (2 Bft) NW 315 14,6 C 31,0 C
26.07.2012 16:31 31,3 C 37 % 1016,1 hPa 0,0 l/m 4,7 km/h (1 Bft) W-NW 292 14,8 C 31,3 C
26.07.2012 16:36 31,2 C 37 % 1016,2 hPa 0,0 l/m 4,0 km/h (1 Bft) N-NW 337 14,8 C 31,2 C
26.07.2012 16:41 30,9 C 38 % 1016,3 hPa 0,0 l/m 6,5 km/h (2 Bft) N 360 14,9 C 30,9 C
26.07.2012 16:46 30,9 C 37 % 1016,1 hPa 0,0 l/m 6,1 km/h (2 Bft) N-NO 22 14,5 C 30,9 C
26.07.2012 18:51 29,6 C 40 % 1016,4 hPa 0,0 l/m 5,0 km/h (1 Bft) N-NO 22 14,5 C 29,6 C
26.07.2012 18:56 29,4 C 40 % 1016,4 hPa 0,0 l/m 6,5 km/h (2 Bft) N-NO 22 14,4 C 29,4 C
26.07.2012 19:01 29,3 C 40 % 1016,3 hPa 0,0 l/m 15,8 km/h (3 Bft) N-NW 337 14,3 C 29,3 C
26.07.2012 19:06 29,2 C 42 % 1016,2 hPa 0,0 l/m 9,4 km/h (2 Bft) N 360 14,9 C 29,2 C
26.07.2012 19:11 29,1 C 42 % 1016,2 hPa 0,0 l/m 5,4 km/h (1 Bft) NO 45 14,9 C 29,1 C
26.07.2012 19:16 28,9 C 43 % 1016,2 hPa 0,0 l/m 10,4 km/h (2 Bft) N 360 15,0 C 28,9 C
26.07.2012 19:21 28,9 C 43 % 1016,5 hPa 0,0 l/m 4,7 km/h (1 Bft) N-NO 22 15,0 C 28,9 C
26.07.2012 19:26 28,8 C 44 % 1016,6 hPa 0,0 l/m 8,3 km/h (2 Bft) N-NO 22 15,3 C 28,8 C
26.07.2012 19:31 28,7 C 44 % 1016,4 hPa 0,0 l/m 4,0 km/h (1 Bft) N 360 15,2 C 28,7 C
26.07.2012 19:36 28,6 C 44 % 1016,3 hPa 0,0 l/m 5,0 km/h (1 Bft) N-NO 22 15,1 C 28,6 C
26.07.2012 19:41 28,4 C 44 % 1016,4 hPa 0,0 l/m 3,6 km/h (1 Bft) N 360 14,9 C 28,4 C
26.07.2012 19:46 28,3 C 45 % 1016,3 hPa 0,0 l/m 7,6 km/h (2 Bft) N 360 15,2 C 28,3 C
26.07.2012 19:51 28,2 C 45 % 1016,4 hPa 0,0 l/m 2,2 km/h (1 Bft) NO 45 15,1 C 28,2 C
26.07.2012 19:56 28,1 C 45 % 1016,4 hPa 0,0 l/m 4,7 km/h (1 Bft) NO 45 15,0 C 28,1 C
26.07.2012 20:01 27,9 C 45 % 1016,4 hPa 0,0 l/m 6,1 km/h (2 Bft) N 360 14,8 C 27,9 C
26.07.2012 20:06 27,8 C 46 % 1016,5 hPa 0,0 l/m 6,1 km/h (2 Bft) N-NO 22 15,1 C 27,8 C
26.07.2012 20:11 27,6 C 46 % 1016,6 hPa 0,0 l/m 6,8 km/h (2 Bft) N-NO 22 14,9 C 27,6 C
26.07.2012 20:16 27,5 C 46 % 1016,6 hPa 0,0 l/m 3,2 km/h (1 Bft) N-NO 22 14,8 C 27,5 C
26.07.2012 20:21 27,5 C 46 % 1016,7 hPa 0,0 l/m 4,3 km/h (1 Bft) N-NO 22 14,8 C 27,5 C
26.07.2012 20:26 27,3 C 46 % 1016,7 hPa 0,0 l/m 5,4 km/h (1 Bft) N 360 14,6 C 27,3 C
26.07.2012 20:31 26,9 C 47 % 1016,7 hPa 0,0 l/m 7,6 km/h (2 Bft) N 360 14,6 C 26,9 C
26.07.2012 20:41 26,5 C 48 % 1016,8 hPa 0,0 l/m 2,2 km/h (1 Bft) N 360 14,6 C 26,5 C
26.07.2012 20:46 26,3 C 49 % 1016,8 hPa 0,0 l/m 4,0 km/h (1 Bft) N-NO 22 14,7 C 26,3 C
26.07.2012 20:51 26,1 C 49 % 1017,0 hPa 0,0 l/m 4,3 km/h (1 Bft) N 360 14,5 C 26,1 C
26.07.2012 20:56 25,9 C 50 % 1016,9 hPa 0,0 l/m 6,5 km/h (2 Bft) N 360 14,7 C 25,9 C
26.07.2012 21:01 25,9 C 50 % 1017,0 hPa 0,0 l/m 3,6 km/h (1 Bft) NO 45 14,7 C 25,9 C
26.07.2012 21:06 25,6 C 50 % 1016,9 hPa 0,0 l/m 1,8 km/h (1 Bft) N-NO 22 14,4 C 25,6 C
26.07.2012 21:11 25,5 C 51 % 1017,0 hPa 0,0 l/m 3,6 km/h (1 Bft) NO 45 14,6 C 25,5 C
26.07.2012 21:16 25,3 C 51 % 1017,1 hPa 0,0 l/m 3,2 km/h (1 Bft) NO 45 14,4 C 25,3 C
26.07.2012 21:21 25,2 C 51 % 1017,2 hPa 0,0 l/m 1,4 km/h (1 Bft) N-NO 22 14,3 C 25,2 C
26.07.2012 21:26 25,1 C 52 % 1017,2 hPa 0,0 l/m 4,7 km/h (1 Bft) N 360 14,5 C 25,1 C
26.07.2012 21:31 25,0 C 52 % 1017,2 hPa 0,0 l/m 6,5 km/h (2 Bft) N 360 14,4 C 25,0 C
26.07.2012 21:36 24,9 C 52 % 1017,3 hPa 0,0 l/m 2,5 km/h (1 Bft) N-NO 22 14,4 C 24,9 C
26.07.2012 21:41 24,8 C 52 % 1017,3 hPa 0,0 l/m 2,5 km/h (1 Bft) NO 45 14,3 C 24,8 C
26.07.2012 21:46 24,7 C 52 % 1017,4 hPa 0,0 l/m 0,0 km/h (0 Bft) N-NO 22 14,2 C 24,7 C
26.07.2012 21:51 24,6 C 52 % 1017,3 hPa 0,0 l/m 0,0 km/h (0 Bft) N-NO 22 14,1 C 24,6 C
26.07.2012 21:56 24,5 C 52 % 1017,4 hPa 0,0 l/m 1,8 km/h (1 Bft) O-NO 67 14,0 C 24,5 C
26.07.2012 22:01 24,4 C 52 % 1017,5 hPa 0,0 l/m 2,2 km/h (1 Bft) NO 45 13,9 C 24,4 C
26.07.2012 22:06 24,4 C 53 % 1017,6 hPa 0,0 l/m 2,5 km/h (1 Bft) O-NO 67 14,2 C 24,4 C
26.07.2012 22:11 24,3 C 52 % 1017,5 hPa 0,0 l/m 3,2 km/h (1 Bft) NO 45 13,8 C 24,3 C
26.07.2012 22:16 24,2 C 52 % 1017,6 hPa 0,0 l/m 1,8 km/h (1 Bft) O-NO 67 13,7 C 24,2 C
26.07.2012 22:21 24,1 C 53 % 1017,6 hPa 0,0 l/m 0,0 km/h (0 Bft) O-NO 67 13,9 C 24,1 C
26.07.2012 22:26 24,0 C 53 % 1017,6 hPa 0,0 l/m 3,2 km/h (1 Bft) NO 45 13,8 C 24,0 C
26.07.2012 22:31 23,9 C 53 % 1017,6 hPa 0,0 l/m 1,8 km/h (1 Bft) O-NO 67 13,7 C 23,9 C
26.07.2012 22:36 23,9 C 53 % 1017,6 hPa 0,0 l/m 2,5 km/h (1 Bft) NO 45 13,7 C 23,9 C
26.07.2012 22:41 23,8 C 54 % 1017,5 hPa 0,0 l/m 5,0 km/h (1 Bft) O-NO 67 13,9 C 23,8 C
26.07.2012 22:46 23,6 C 54 % 1017,8 hPa 0,0 l/m 6,8 km/h (2 Bft) O-NO 67 13,7 C 23,6 C
26.07.2012 22:51 23,5 C 54 % 1017,6 hPa 0,0 l/m 3,2 km/h (1 Bft) NO 45 13,6 C 23,5 C
26.07.2012 22:56 23,4 C 55 % 1017,5 hPa 0,0 l/m 2,5 km/h (1 Bft) O-NO 67 13,8 C 23,4 C
26.07.2012 23:01 23,3 C 55 % 1017,5 hPa 0,0 l/m 2,5 km/h (1 Bft) NO 45 13,7 C 23,3 C
26.07.2012 23:06 23,2 C 56 % 1017,7 hPa 0,0 l/m 6,5 km/h (2 Bft) O-NO 67 13,9 C 23,2 C
26.07.2012 23:11 23,1 C 56 % 1017,7 hPa 0,0 l/m 4,7 km/h (1 Bft) NO 45 13,8 C 23,1 C
26.07.2012 23:16 22,9 C 56 % 1017,6 hPa 0,0 l/m 5,4 km/h (1 Bft) NO 45 13,6 C 22,9 C
26.07.2012 23:21 22,8 C 57 % 1017,8 hPa 0,0 l/m 6,5 km/h (2 Bft) O-NO 67 13,8 C 22,8 C
26.07.2012 23:26 22,7 C 57 % 1017,7 hPa 0,0 l/m 4,7 km/h (1 Bft) O-NO 67 13,7 C 22,7 C
26.07.2012 23:31 22,6 C 58 % 1017,6 hPa 0,0 l/m 4,0 km/h (1 Bft) O-NO 67 13,9 C 22,6 C
26.07.2012 23:36 22,4 C 58 % 1017,7 hPa 0,0 l/m 4,7 km/h (1 Bft) NO 45 13,7 C 22,4 C
26.07.2012 23:41 22,4 C 58 % 1017,7 hPa 0,0 l/m 7,6 km/h (2 Bft) O-NO 67 13,7 C 22,4 C
26.07.2012 23:46 22,3 C 59 % 1017,6 hPa 0,0 l/m 0,0 km/h (0 Bft) NO 45 13,9 C 22,3 C
26.07.2012 23:51 22,2 C 59 % 1017,7 hPa 0,0 l/m 6,1 km/h (2 Bft) NO 45 13,8 C 22,2 C
26.07.2012 23:56 22,1 C 59 % 1017,6 hPa 0,0 l/m 3,6 km/h (1 Bft) O-NO 67 13,7 C 22,1 C
_ Min-Zeit 05:31 15:21 00:01 - 00:21 - - 22:51 05:31
Minimum _ 18,8 C 36 % 1014,3 hPa - 0,0 km/h (0 Bft) - - 13,6 C 18,8 C
_ Max-Zeit 15:36 05:21 22:46 10:56 08:11 - - 07:21 15:36
Maximum _ 32,6 C 80 % 1017,8 hPa 0,5 l/m 16,6 km/h
N-NO (3 Bft)
- - 17,3 C 32,6 C
Durchschnitt _ 25,3 C 57 % 1016,1 hPa #0,5 l/m 3,8 km/h (1 Bft) N-NO - 15,5 C 25,3 C
(c) by David Heller